Time;durP1;ratioP1;P1;durP2;ratioP2;P2;SDS_P1;SDS_P2;PMS_P1;PMS_P2;Temp;Humidity;BMP_temperature;BMP_pressure;BME280_temperature;BME280_humidity;BME280_pressure;Samples;Min_cycle;Max_cycle;Signal;HPM_P1;HPM_P2
2024/04/05 00:06:52;;;;;;;8.50;3.47;;;;;;;;;;5049532;28;20200;-57
2024/04/05 00:09:18;;;;;;;10.53;3.73;;;;;;;;;;5088753;28;20185;-57
2024/04/05 00:11:44;;;;;;;10.53;3.77;;;;;;;;;;5089144;28;20295;-57
2024/04/05 00:14:11;;;;;;;7.57;3.63;;;;;;;;;;5088657;28;20164;-57
2024/04/05 00:17:11;;;;;;;11.47;3.57;;;;;;;;;;5088431;28;20642;-57
2024/04/05 00:19:37;;;;;;;8.03;3.67;;;;;;;;;;5088922;28;20188;-57
2024/04/05 00:22:03;;;;;;;12.63;3.87;;;;;;;;;;5089103;28;20256;-57
2024/04/05 00:24:29;;;;;;;9.57;3.63;;;;;;;;;;5129406;28;20180;-57
2024/04/05 00:26:55;;;;;;;11.23;3.03;;;;;;;;;;5130261;28;20621;-57
2024/04/05 00:29:21;;;;;;;8.33;3.40;;;;;;;;;;5129682;28;20171;-57
2024/04/05 00:31:47;;;;;;;11.63;4.00;;;;;;;;;;5129861;28;20199;-57
2024/04/05 00:34:13;;;;;;;12.37;3.63;;;;;;;;;;5112280;27;20632;-57
2024/04/05 00:36:40;;;;;;;9.43;3.70;;;;;;;;;;5116641;27;20290;-57
2024/04/05 00:39:06;;;;;;;8.43;3.07;;;;;;;;;;5092339;28;20259;-57
2024/04/05 00:41:32;;;;;;;9.30;3.33;;;;;;;;;;5092562;28;20168;-57
2024/04/05 00:43:58;;;;;;;6.13;2.87;;;;;;;;;;5092012;28;20160;-57
2024/04/05 00:46:24;;;;;;;6.07;3.47;;;;;;;;;;5092475;28;20192;-57
2024/04/05 00:48:51;;;;;;;10.47;2.93;;;;;;;;;;5092393;28;20176;-57
2024/04/05 00:51:17;;;;;;;8.70;3.17;;;;;;;;;;5092158;28;20651;-57
2024/04/05 00:53:46;;;;;;;8.90;3.63;;;;;;;;;;5092199;28;20267;-57
2024/04/05 00:56:12;;;;;;;5.43;2.67;;;;;;;;;;5092457;28;20187;-58
2024/04/05 00:58:39;;;;;;;7.67;3.43;;;;;;;;;;5092103;28;20162;-57
2024/04/05 01:01:06;;;;;;;6.77;2.87;;;;;;;;;;5092500;28;20275;-57
2024/04/05 01:03:32;;;;;;;11.43;3.30;;;;;;;;;;5092262;28;20168;-57
2024/04/05 01:05:59;;;;;;;9.70;2.97;;;;;;;;;;5091853;28;20596;-57
2024/04/05 01:08:25;;;;;;;5.83;3.10;;;;;;;;;;5091534;28;20267;-57
2024/04/05 01:10:51;;;;;;;8.43;3.10;;;;;;;;;;5091966;28;20225;-59
2024/04/05 01:13:17;;;;;;;6.17;2.73;;;;;;;;;;5091715;28;20600;-57
2024/04/05 01:15:43;;;;;;;9.93;3.37;;;;;;;;;;5074111;28;20251;-57
2024/04/05 01:18:10;;;;;;;9.57;3.37;;;;;;;;;;5091819;28;20188;-57
2024/04/05 01:20:37;;;;;;;8.07;2.70;;;;;;;;;;5091317;28;20181;-57
2024/04/05 01:23:04;;;;;;;5.97;2.80;;;;;;;;;;5091449;28;20691;-57
2024/04/05 01:25:31;;;;;;;7.37;2.97;;;;;;;;;;5091911;28;20183;-57
2024/04/05 01:27:57;;;;;;;5.67;2.67;;;;;;;;;;5091845;28;20512;-57
2024/04/05 01:30:23;;;;;;;9.60;3.57;;;;;;;;;;5091420;28;20207;-57
2024/04/05 01:32:54;;;;;;;3.30;2.40;;;;;;;;;;5091409;28;20581;-57
2024/04/05 01:35:20;;;;;;;6.70;2.70;;;;;;;;;;5091119;28;20160;-57
2024/04/05 01:37:46;;;;;;;5.73;2.80;;;;;;;;;;5073102;28;20200;-57
2024/04/05 01:40:12;;;;;;;12.47;3.13;;;;;;;;;;5091324;28;20171;-57
2024/04/05 01:42:39;;;;;;;12.40;3.30;;;;;;;;;;5091457;28;20168;-58
2024/04/05 01:45:05;;;;;;;7.40;2.63;;;;;;;;;;5090109;28;20179;-57
2024/04/05 01:47:31;;;;;;;6.97;2.60;;;;;;;;;;5091189;28;20180;-57
2024/04/05 01:49:57;;;;;;;5.73;2.80;;;;;;;;;;5090823;28;20164;-57
2024/04/05 01:52:23;;;;;;;9.80;3.23;;;;;;;;;;5129261;27;20170;-57
2024/04/05 01:54:50;;;;;;;8.73;3.33;;;;;;;;;;5131771;27;20158;-57
2024/04/05 01:57:16;;;;;;;6.33;2.87;;;;;;;;;;5132174;27;20170;-57
2024/04/05 01:59:48;;;;;;;10.77;3.27;;;;;;;;;;5131761;27;20199;-57
2024/04/05 02:02:14;;;;;;;6.80;2.77;;;;;;;;;;5132137;27;20185;-57
2024/04/05 02:04:41;;;;;;;7.77;2.77;;;;;;;;;;5132056;27;20160;-57
2024/04/05 02:07:07;;;;;;;5.77;2.70;;;;;;;;;;5131728;27;20158;-57
2024/04/05 02:09:33;;;;;;;4.63;3.20;;;;;;;;;;5112818;27;20697;-57
2024/04/05 02:11:59;;;;;;;8.70;3.43;;;;;;;;;;5131912;27;20202;-57
2024/04/05 02:14:26;;;;;;;9.83;2.93;;;;;;;;;;5131513;27;20171;-57
2024/04/05 02:16:52;;;;;;;7.37;3.87;;;;;;;;;;5131577;27;20186;-57
2024/04/05 02:19:18;;;;;;;5.33;2.97;;;;;;;;;;5131375;27;20159;-57
2024/04/05 02:21:44;;;;;;;8.00;3.07;;;;;;;;;;5131146;27;20162;-57
2024/04/05 02:24:10;;;;;;;6.67;3.00;;;;;;;;;;5130771;27;20225;-60
2024/04/05 02:26:36;;;;;;;9.83;3.20;;;;;;;;;;5131650;27;20159;-63
2024/04/05 02:29:02;;;;;;;8.83;3.67;;;;;;;;;;5112355;27;20204;-62
2024/04/05 02:31:28;;;;;;;10.40;3.10;;;;;;;;;;5131431;27;20202;-60
2024/04/05 02:33:54;;;;;;;9.87;3.60;;;;;;;;;;5131272;27;20163;-61
2024/04/05 02:36:20;;;;;;;8.90;3.37;;;;;;;;;;5119829;27;20506;-61
2024/04/05 02:38:46;;;;;;;13.17;3.60;;;;;;;;;;5090285;28;20627;-62
2024/04/05 02:41:12;;;;;;;6.53;3.23;;;;;;;;;;5090528;28;20619;-62
2024/04/05 02:43:39;;;;;;;8.37;3.10;;;;;;;;;;5089873;28;20705;-62
2024/04/05 02:46:05;;;;;;;10.13;2.93;;;;;;;;;;5090406;28;20168;-61
2024/04/05 02:48:31;;;;;;;6.70;3.07;;;;;;;;;;5089923;28;20156;-62
2024/04/05 02:50:57;;;;;;;7.60;3.90;;;;;;;;;;5089835;28;20560;-62
2024/04/05 02:53:24;;;;;;;7.20;3.10;;;;;;;;;;5089468;28;20255;-62
2024/04/05 02:55:51;;;;;;;6.10;3.20;;;;;;;;;;5090312;28;20612;-62
2024/04/05 02:58:17;;;;;;;10.20;3.23;;;;;;;;;;5089318;28;20152;-62
2024/04/05 03:00:43;;;;;;;8.57;3.73;;;;;;;;;;5089806;28;20254;-62
2024/04/05 03:03:09;;;;;;;9.60;3.47;;;;;;;;;;5089743;28;20168;-61
2024/04/05 03:05:35;;;;;;;11.77;3.20;;;;;;;;;;5089559;28;20164;-61
2024/04/05 03:08:01;;;;;;;6.97;3.13;;;;;;;;;;5089336;28;20160;-62
2024/04/05 03:10:29;;;;;;;6.43;3.37;;;;;;;;;;5089707;28;20196;-62
2024/04/05 03:12:56;;;;;;;8.93;3.37;;;;;;;;;;5089572;28;20243;-62
2024/04/05 03:15:22;;;;;;;7.27;3.30;;;;;;;;;;5089233;28;20276;-62
2024/04/05 03:17:48;;;;;;;7.47;3.10;;;;;;;;;;5089605;28;20207;-61
2024/04/05 03:20:14;;;;;;;8.43;3.57;;;;;;;;;;5089389;28;20168;-61
2024/04/05 03:22:42;;;;;;;8.07;3.60;;;;;;;;;;5089623;28;20296;-62
2024/04/05 03:25:08;;;;;;;10.10;3.50;;;;;;;;;;5089115;28;20171;-61
2024/04/05 03:27:34;;;;;;;9.10;2.83;;;;;;;;;;5089760;28;20175;-61
2024/04/05 03:30:00;;;;;;;8.03;3.27;;;;;;;;;;5089047;28;20178;-61
2024/04/05 03:32:26;;;;;;;5.97;3.00;;;;;;;;;;5089292;28;20172;-61
2024/04/05 03:34:52;;;;;;;9.63;3.43;;;;;;;;;;5089518;28;20182;-62
2024/04/05 03:37:18;;;;;;;9.63;3.80;;;;;;;;;;5102652;28;20183;-61
2024/04/05 03:39:44;;;;;;;9.17;3.07;;;;;;;;;;5109172;28;20174;-61
2024/04/05 03:42:10;;;;;;;6.00;3.47;;;;;;;;;;5109722;28;20167;-61
2024/04/05 03:44:36;;;;;;;5.70;2.80;;;;;;;;;;5109497;28;20186;-61
2024/04/05 03:47:02;;;;;;;12.83;3.80;;;;;;;;;;5110074;28;20621;-62
2024/04/05 03:49:28;;;;;;;8.13;3.13;;;;;;;;;;5109312;28;20183;-62
2024/04/05 03:51:57;;;;;;;8.67;3.20;;;;;;;;;;5109192;28;20179;-62
2024/04/05 03:54:23;;;;;;;5.47;3.50;;;;;;;;;;5108942;28;20164;-61
2024/04/05 03:56:49;;;;;;;8.20;3.47;;;;;;;;;;5109866;28;20163;-61
2024/04/05 03:59:15;;;;;;;7.10;3.43;;;;;;;;;;5108868;28;20178;-61
2024/04/05 04:01:44;;;;;;;13.97;4.67;;;;;;;;;;5109837;28;20179;-61
2024/04/05 04:04:10;;;;;;;6.80;3.17;;;;;;;;;;5109767;28;20160;-62
2024/04/05 04:06:36;;;;;;;13.43;3.30;;;;;;;;;;5109156;28;20171;-62
2024/04/05 04:09:03;;;;;;;10.03;3.37;;;;;;;;;;5112024;28;20174;-62
2024/04/05 04:11:29;;;;;;;5.17;2.67;;;;;;;;;;5113266;28;20210;-62
2024/04/05 04:13:55;;;;;;;9.30;3.13;;;;;;;;;;5113206;28;20168;-62
2024/04/05 04:16:21;;;;;;;5.40;3.03;;;;;;;;;;5114049;28;20167;-62
2024/04/05 04:18:48;;;;;;;6.03;3.03;;;;;;;;;;5113852;28;20210;-62
2024/04/05 04:21:14;;;;;;;5.97;3.20;;;;;;;;;;5113670;28;20164;-62
2024/04/05 04:23:40;;;;;;;9.50;2.80;;;;;;;;;;5112751;28;20215;-62
2024/04/05 04:26:07;;;;;;;7.20;3.13;;;;;;;;;;5113541;28;20175;-62
2024/04/05 04:28:33;;;;;;;10.97;3.43;;;;;;;;;;5112627;28;20171;-63
2024/04/05 04:31:00;;;;;;;11.17;3.43;;;;;;;;;;5112924;28;20312;-63
2024/04/05 04:33:26;;;;;;;8.73;2.90;;;;;;;;;;5112998;28;20160;-63
2024/04/05 04:35:52;;;;;;;7.53;3.33;;;;;;;;;;5112792;28;20610;-64
2024/04/05 04:38:19;;;;;;;7.63;3.93;;;;;;;;;;5113116;28;20167;-63
2024/04/05 04:40:45;;;;;;;7.37;2.90;;;;;;;;;;5112840;28;20250;-63
2024/04/05 04:43:11;;;;;;;9.70;4.53;;;;;;;;;;5113270;28;20210;-64
2024/04/05 04:45:37;;;;;;;8.10;2.90;;;;;;;;;;5112468;28;20694;-64
2024/04/05 04:48:03;;;;;;;5.23;3.10;;;;;;;;;;5113195;28;20163;-64
2024/04/05 04:50:29;;;;;;;6.27;2.83;;;;;;;;;;5112120;28;20203;-64
2024/04/05 04:52:55;;;;;;;8.60;3.10;;;;;;;;;;5094035;28;20251;-64
2024/04/05 04:55:21;;;;;;;6.87;2.63;;;;;;;;;;5112804;28;20570;-64
2024/04/05 04:57:47;;;;;;;9.23;2.93;;;;;;;;;;5112828;28;20190;-64
2024/04/05 05:00:14;;;;;;;7.10;3.17;;;;;;;;;;5112298;28;20162;-64
2024/04/05 05:02:43;;;;;;;10.30;3.30;;;;;;;;;;5113038;28;20186;-64
2024/04/05 05:05:10;;;;;;;7.57;3.20;;;;;;;;;;5111762;28;20182;-63
2024/04/05 05:07:36;;;;;;;11.57;3.80;;;;;;;;;;5112892;28;20173;-64
2024/04/05 05:10:02;;;;;;;8.27;3.30;;;;;;;;;;5111615;28;20611;-64
2024/04/05 05:12:28;;;;;;;5.70;3.27;;;;;;;;;;5112233;28;20258;-64
2024/04/05 05:14:54;;;;;;;8.83;3.67;;;;;;;;;;5111985;28;20168;-64
2024/04/05 05:17:20;;;;;;;10.00;2.97;;;;;;;;;;5112369;28;20195;-64
2024/04/05 05:19:46;;;;;;;7.83;3.53;;;;;;;;;;5111402;28;20167;-64
2024/04/05 05:22:12;;;;;;;6.40;2.93;;;;;;;;;;5111989;28;20164;-62
2024/04/05 05:24:38;;;;;;;8.83;3.40;;;;;;;;;;5111999;28;20505;-62
2024/04/05 05:27:04;;;;;;;8.97;4.63;;;;;;;;;;5111714;28;20217;-63
2024/04/05 05:29:30;;;;;;;8.77;3.80;;;;;;;;;;5111471;28;20255;-62
2024/04/05 05:31:56;;;;;;;7.30;3.00;;;;;;;;;;5112267;28;20199;-62
2024/04/05 05:34:22;;;;;;;6.83;3.20;;;;;;;;;;5111762;28;20175;-62
2024/04/05 05:36:48;;;;;;;9.07;3.27;;;;;;;;;;5111547;28;20395;-62
2024/04/05 05:39:14;;;;;;;8.13;3.20;;;;;;;;;;5111940;28;20645;-61
2024/04/05 05:41:40;;;;;;;10.33;3.07;;;;;;;;;;5112172;28;20762;-61
2024/04/05 05:44:06;;;;;;;10.50;3.47;;;;;;;;;;5111537;28;20179;-60
2024/04/05 05:46:32;;;;;;;6.83;2.93;;;;;;;;;;5104789;28;20684;-63
2024/04/05 05:49:00;;;;;;;9.97;3.27;;;;;;;;;;5109785;28;20183;-61
2024/04/05 05:51:26;;;;;;;10.67;3.63;;;;;;;;;;5109192;28;20688;-61
2024/04/05 05:53:52;;;;;;;10.63;4.63;;;;;;;;;;5109463;28;20166;-61
2024/04/05 05:56:18;;;;;;;6.60;2.60;;;;;;;;;;5111144;28;20171;-61
2024/04/05 05:58:45;;;;;;;6.07;3.60;;;;;;;;;;5111256;28;20179;-60
2024/04/05 06:01:12;;;;;;;7.43;3.17;;;;;;;;;;5111448;28;20167;-61
2024/04/05 06:03:38;;;;;;;7.53;3.20;;;;;;;;;;5111442;28;20276;-61
2024/04/05 06:06:06;;;;;;;6.63;3.20;;;;;;;;;;5111576;28;20647;-60
2024/04/05 06:08:32;;;;;;;8.23;2.97;;;;;;;;;;5111179;28;20167;-61
2024/04/05 06:10:58;;;;;;;6.63;2.97;;;;;;;;;;5111577;28;20207;-61
2024/04/05 06:13:25;;;;;;;7.63;2.70;;;;;;;;;;5109389;28;20171;-61
2024/04/05 06:15:58;;;;;;;10.33;3.50;;;;;;;;;;5111389;28;20163;-61
2024/04/05 06:18:26;;;;;;;5.30;2.17;;;;;;;;;;5111066;28;20682;-61
2024/04/05 06:20:53;;;;;;;6.83;3.37;;;;;;;;;;5110778;28;20177;-61
2024/04/05 06:23:19;;;;;;;8.27;2.30;;;;;;;;;;5110718;28;20634;-61
2024/04/05 06:25:55;;;;;;;6.63;2.63;;;;;;;;;;5110936;28;20245;-62
2024/04/05 06:28:21;;;;;;;7.63;2.80;;;;;;;;;;5110471;28;20258;-61
2024/04/05 06:30:47;;;;;;;8.17;2.80;;;;;;;;;;5111004;28;20578;-61
2024/04/05 06:33:13;;;;;;;6.77;2.23;;;;;;;;;;5110340;28;20217;-61
2024/04/05 06:35:39;;;;;;;5.10;2.40;;;;;;;;;;5109840;28;20613;-62
2024/04/05 06:38:07;;;;;;;7.77;2.60;;;;;;;;;;5088722;28;20177;-61
2024/04/05 06:40:33;;;;;;;7.03;2.40;;;;;;;;;;5090304;28;20185;-61
2024/04/05 06:42:59;;;;;;;6.03;2.43;;;;;;;;;;5090463;28;20662;-61
2024/04/05 06:45:25;;;;;;;5.10;2.50;;;;;;;;;;5089629;28;20169;-62
2024/04/05 06:47:51;;;;;;;5.83;2.40;;;;;;;;;;5090412;28;20585;-61
2024/04/05 06:50:17;;;;;;;7.93;2.60;;;;;;;;;;5089215;28;20296;-62
2024/04/05 06:52:43;;;;;;;5.37;2.57;;;;;;;;;;5090195;28;20192;-62
2024/04/05 06:55:09;;;;;;;3.97;2.33;;;;;;;;;;5103643;28;20174;-63
2024/04/05 06:57:35;;;;;;;3.67;2.03;;;;;;;;;;5109741;28;20174;-62
2024/04/05 07:00:03;;;;;;;4.43;2.43;;;;;;;;;;5110124;28;20386;-62
2024/04/05 07:02:30;;;;;;;5.30;2.50;;;;;;;;;;5110102;28;20156;-62
2024/04/05 07:04:56;;;;;;;11.10;3.17;;;;;;;;;;5109892;28;20284;-62
2024/04/05 07:07:22;;;;;;;5.97;2.37;;;;;;;;;;5109548;28;20195;-62
2024/04/05 07:09:48;;;;;;;5.17;2.60;;;;;;;;;;5109962;28;20184;-64
2024/04/05 07:12:14;;;;;;;7.03;2.60;;;;;;;;;;5110143;28;20198;-63
2024/04/05 07:14:40;;;;;;;5.90;2.20;;;;;;;;;;5109207;28;20159;-64
2024/04/05 07:17:06;;;;;;;4.20;2.07;;;;;;;;;;5110270;28;20243;-63
2024/04/05 07:19:32;;;;;;;8.20;2.90;;;;;;;;;;5110218;28;20534;-63
2024/04/05 07:21:58;;;;;;;4.53;2.53;;;;;;;;;;5110046;28;20180;-58
2024/04/05 07:24:24;;;;;;;6.67;2.43;;;;;;;;;;5109231;28;20744;-58
2024/04/05 07:26:50;;;;;;;7.47;2.70;;;;;;;;;;5110211;28;20173;-59
2024/04/05 07:29:16;;;;;;;6.00;2.63;;;;;;;;;;5109726;28;20177;-59
2024/04/05 07:31:43;;;;;;;6.23;2.60;;;;;;;;;;5110419;28;20195;-59
2024/04/05 07:34:09;;;;;;;8.80;3.33;;;;;;;;;;5110071;28;20632;-63
2024/04/05 07:36:35;;;;;;;6.10;2.70;;;;;;;;;;5109508;28;20169;-62
2024/04/05 07:39:03;;;;;;;7.50;2.30;;;;;;;;;;5109646;28;20587;-63
2024/04/05 07:41:29;;;;;;;5.50;2.97;;;;;;;;;;5109571;28;20171;-62
2024/04/05 07:43:55;;;;;;;5.50;2.63;;;;;;;;;;5108792;28;20263;-59
2024/04/05 07:46:21;;;;;;;7.73;2.90;;;;;;;;;;5109888;28;20198;-61
2024/04/05 07:48:48;;;;;;;6.10;2.93;;;;;;;;;;5109970;28;20183;-62
2024/04/05 07:51:16;;;;;;;9.47;3.17;;;;;;;;;;5109209;28;20711;-62
2024/04/05 07:53:42;;;;;;;9.73;3.20;;;;;;;;;;5109097;28;20296;-63
2024/04/05 07:56:08;;;;;;;5.83;2.20;;;;;;;;;;5109467;28;20171;-63
2024/04/05 07:58:34;;;;;;;4.70;2.60;;;;;;;;;;5109066;28;20161;-63
2024/04/05 08:01:03;;;;;;;4.23;2.50;;;;;;;;;;5109568;28;20197;-63
2024/04/05 08:03:29;;;;;;;7.83;2.57;;;;;;;;;;5109487;28;20172;-63
2024/04/05 08:05:55;;;;;;;5.80;2.67;;;;;;;;;;5109478;28;20476;-63
2024/04/05 08:08:21;;;;;;;5.87;2.53;;;;;;;;;;5109400;28;20688;-62
2024/04/05 08:10:47;;;;;;;7.70;2.53;;;;;;;;;;5109404;28;20397;-63
2024/04/05 08:13:13;;;;;;;6.47;2.50;;;;;;;;;;5109801;28;20194;-62
2024/04/05 08:15:40;;;;;;;7.43;2.93;;;;;;;;;;5090694;28;20252;-63
2024/04/05 08:18:06;;;;;;;6.17;2.70;;;;;;;;;;5109733;28;20229;-63
2024/04/05 08:20:32;;;;;;;7.33;2.27;;;;;;;;;;5109170;28;20176;-62
2024/04/05 08:22:58;;;;;;;6.93;2.40;;;;;;;;;;5108900;28;20536;-63
2024/04/05 08:25:24;;;;;;;4.80;2.97;;;;;;;;;;5109126;28;20235;-63
2024/04/05 08:27:50;;;;;;;5.03;2.40;;;;;;;;;;5108974;28;20172;-63
2024/04/05 08:30:18;;;;;;;4.00;2.40;;;;;;;;;;5108962;28;20168;-62
2024/04/05 08:32:44;;;;;;;4.90;2.73;;;;;;;;;;5109432;28;20160;-63
2024/04/05 08:35:10;;;;;;;3.83;2.87;;;;;;;;;;5108846;28;20242;-63
2024/04/05 08:37:37;;;;;;;4.00;2.43;;;;;;;;;;5093075;28;20177;-62
2024/04/05 08:40:03;;;;;;;3.57;1.90;;;;;;;;;;5088757;28;20651;-62
2024/04/05 08:42:32;;;;;;;7.47;2.70;;;;;;;;;;5089211;28;20612;-62
2024/04/05 08:44:58;;;;;;;7.47;2.60;;;;;;;;;;5088719;28;20342;-62
2024/04/05 08:47:26;;;;;;;7.43;2.50;;;;;;;;;;5088636;28;20153;-63
2024/04/05 08:49:53;;;;;;;3.73;2.43;;;;;;;;;;5088724;28;20182;-62
2024/04/05 08:52:19;;;;;;;5.80;2.67;;;;;;;;;;5088389;28;20605;-63
2024/04/05 08:54:45;;;;;;;3.93;2.03;;;;;;;;;;5088616;28;20161;-63
2024/04/05 08:57:11;;;;;;;5.50;2.43;;;;;;;;;;5092597;28;20175;-63
2024/04/05 08:59:37;;;;;;;5.83;2.60;;;;;;;;;;5091977;28;20162;-63
2024/04/05 09:02:03;;;;;;;4.97;2.50;;;;;;;;;;5092328;28;20165;-63
2024/04/05 09:04:30;;;;;;;5.30;2.33;;;;;;;;;;5092169;28;20236;-63
2024/04/05 09:06:56;;;;;;;3.70;2.60;;;;;;;;;;5092026;28;20176;-64
2024/04/05 09:09:29;;;;;;;4.90;2.20;;;;;;;;;;5091889;28;20169;-63
2024/04/05 09:12:01;;;;;;;6.87;2.60;;;;;;;;;;5091857;28;20237;-63
2024/04/05 09:14:29;;;;;;;4.53;2.33;;;;;;;;;;5091827;28;20170;-63
2024/04/05 09:16:55;;;;;;;2.97;2.30;;;;;;;;;;5092213;28;20176;-62
2024/04/05 09:19:22;;;;;;;4.70;2.40;;;;;;;;;;5092104;28;20587;-62
2024/04/05 09:21:48;;;;;;;4.20;2.37;;;;;;;;;;5091423;28;20175;-62
2024/04/05 09:24:17;;;;;;;4.67;2.50;;;;;;;;;;5091463;28;20328;-62
2024/04/05 09:26:45;;;;;;;5.97;3.50;;;;;;;;;;5092020;28;20189;-62
2024/04/05 09:29:13;;;;;;;6.07;2.50;;;;;;;;;;5091588;28;20168;-62
2024/04/05 09:31:39;;;;;;;6.40;2.83;;;;;;;;;;5091496;28;20223;-62
2024/04/05 09:34:08;;;;;;;5.83;2.10;;;;;;;;;;5091591;28;20260;-62
2024/04/05 09:36:34;;;;;;;6.83;2.23;;;;;;;;;;5091330;28;20181;-61
2024/04/05 09:39:06;;;;;;;6.17;3.03;;;;;;;;;;5091455;28;20254;-62
2024/04/05 09:41:36;;;;;;;6.93;2.70;;;;;;;;;;5091689;28;20635;-61
2024/04/05 09:44:05;;;;;;;3.03;2.27;;;;;;;;;;5091121;28;20162;-62
2024/04/05 09:46:32;;;;;;;7.37;2.57;;;;;;;;;;5091256;28;20251;-62
2024/04/05 09:48:58;;;;;;;5.73;2.10;;;;;;;;;;5091343;28;20570;-62
2024/04/05 09:51:44;;;;;;;4.93;2.33;;;;;;;;;;5090803;28;20221;-61
2024/04/05 09:54:11;;;;;;;5.10;2.97;;;;;;;;;;5090987;28;20560;-61
2024/04/05 09:56:39;;;;;;;7.17;2.63;;;;;;;;;;5091070;28;20186;-61
2024/04/05 09:59:07;;;;;;;4.30;2.50;;;;;;;;;;5090844;28;20165;-62
2024/04/05 10:01:34;;;;;;;4.30;2.50;;;;;;;;;;5091275;28;20181;-61
2024/04/05 10:04:00;;;;;;;6.07;2.40;;;;;;;;;;5090973;28;20195;-61
2024/04/05 10:06:34;;;;;;;4.43;2.47;;;;;;;;;;5090594;28;20168;-62
2024/04/05 10:09:00;;;;;;;6.33;2.60;;;;;;;;;;5090796;28;20173;-62
2024/04/05 10:11:27;;;;;;;5.40;2.63;;;;;;;;;;5090858;28;20197;-62
2024/04/05 10:14:02;;;;;;;5.50;3.33;;;;;;;;;;5090706;28;20751;-62
2024/04/05 10:16:30;;;;;;;7.40;2.67;;;;;;;;;;5091192;28;20173;-62
2024/04/05 10:18:56;;;;;;;7.13;2.33;;;;;;;;;;5090532;28;20579;-62
2024/04/05 10:21:32;;;;;;;7.70;2.73;;;;;;;;;;5090261;28;20176;-62
2024/04/05 10:23:59;;;;;;;8.20;3.40;;;;;;;;;;5090248;28;20226;-62
2024/04/05 10:26:25;;;;;;;6.20;2.30;;;;;;;;;;5090743;28;20179;-62
2024/04/05 10:29:04;;;;;;;5.77;2.33;;;;;;;;;;5090592;28;20248;-62
2024/04/05 10:31:31;;;;;;;3.83;1.93;;;;;;;;;;5090599;28;20656;-62
2024/04/05 10:33:58;;;;;;;6.67;2.40;;;;;;;;;;5090688;28;20184;-62
2024/04/05 10:36:24;;;;;;;3.83;2.30;;;;;;;;;;5089837;28;20168;-62
2024/04/05 10:38:50;;;;;;;4.87;3.00;;;;;;;;;;5089979;28;20170;-62
2024/04/05 10:41:16;;;;;;;5.03;2.50;;;;;;;;;;5090610;28;20255;-62
2024/04/05 10:43:43;;;;;;;5.83;2.50;;;;;;;;;;5090034;28;20639;-62
2024/04/05 10:46:10;;;;;;;4.57;2.40;;;;;;;;;;5090538;28;20184;-62
2024/04/05 10:48:36;;;;;;;5.23;2.87;;;;;;;;;;5090216;28;20166;-63
2024/04/05 10:51:04;;;;;;;4.03;2.43;;;;;;;;;;5089974;28;20189;-63
2024/04/05 10:53:31;;;;;;;7.53;2.90;;;;;;;;;;5089632;28;20257;-63
2024/04/05 10:55:57;;;;;;;4.87;2.23;;;;;;;;;;5090408;28;20505;-64
2024/04/05 10:58:23;;;;;;;5.13;2.27;;;;;;;;;;5089742;28;20655;-63
2024/04/05 11:00:49;;;;;;;3.27;2.33;;;;;;;;;;5090329;28;20166;-65
2024/04/05 11:03:16;;;;;;;6.20;2.97;;;;;;;;;;5089990;28;20176;-64
2024/04/05 11:05:44;;;;;;;5.73;2.23;;;;;;;;;;5089800;28;20548;-63
2024/04/05 11:08:14;;;;;;;4.67;2.20;;;;;;;;;;5089924;28;20179;-63
2024/04/05 11:10:40;;;;;;;3.47;2.50;;;;;;;;;;5089734;28;20190;-64
2024/04/05 11:13:18;;;;;;;3.53;2.20;;;;;;;;;;5090333;28;20163;-63
2024/04/05 11:15:45;;;;;;;4.90;2.90;;;;;;;;;;5089870;28;20169;-64
2024/04/05 11:18:12;;;;;;;3.47;2.30;;;;;;;;;;5089179;28;20203;-64
2024/04/05 11:20:41;;;;;;;6.77;2.50;;;;;;;;;;5089322;28;20307;-64
2024/04/05 11:23:14;;;;;;;7.67;2.70;;;;;;;;;;5089096;28;20237;-64
2024/04/05 11:25:40;;;;;;;6.07;2.53;;;;;;;;;;5089603;28;20169;-64
2024/04/05 11:28:12;;;;;;;4.80;2.20;;;;;;;;;;5089365;28;20656;-64
2024/04/05 11:30:42;;;;;;;4.37;2.40;;;;;;;;;;5088800;28;20256;-64
2024/04/05 11:33:08;;;;;;;3.77;2.50;;;;;;;;;;5089494;28;20775;-66
2024/04/05 11:35:35;;;;;;;3.20;2.70;;;;;;;;;;5089205;28;20170;-65
2024/04/05 11:38:01;;;;;;;6.47;3.10;;;;;;;;;;5088989;28;20205;-64
2024/04/05 11:40:27;;;;;;;4.70;2.73;;;;;;;;;;5089254;28;20170;-65
2024/04/05 11:42:53;;;;;;;8.30;3.10;;;;;;;;;;5089663;28;20643;-64
2024/04/05 11:45:20;;;;;;;5.60;2.43;;;;;;;;;;5070670;28;20183;-63
2024/04/05 11:47:49;;;;;;;3.63;2.57;;;;;;;;;;5089949;28;20623;-64
2024/04/05 11:50:15;;;;;;;3.23;2.50;;;;;;;;;;5089337;28;20166;-64
2024/04/05 11:52:41;;;;;;;5.90;2.73;;;;;;;;;;5089614;28;20210;-63
2024/04/05 11:55:08;;;;;;;4.27;2.80;;;;;;;;;;5088861;28;20178;-64
2024/04/05 11:57:34;;;;;;;4.10;2.20;;;;;;;;;;5089583;28;20530;-64
2024/04/05 12:00:04;;;;;;;5.33;2.50;;;;;;;;;;5088576;28;20174;-60
2024/04/05 12:02:31;;;;;;;10.37;2.63;;;;;;;;;;5089646;28;20188;-61
2024/04/05 12:04:57;;;;;;;3.03;1.90;;;;;;;;;;5089121;28;20183;-61
2024/04/05 12:07:23;;;;;;;5.17;2.30;;;;;;;;;;5089354;28;20160;-60
2024/04/05 12:09:49;;;;;;;3.97;2.50;;;;;;;;;;5089033;28;20580;-61
2024/04/05 12:12:15;;;;;;;6.03;2.60;;;;;;;;;;5089016;28;20197;-67
2024/04/05 12:14:41;;;;;;;4.73;2.50;;;;;;;;;;5088837;28;20171;-65
2024/04/05 12:17:09;;;;;;;5.70;2.70;;;;;;;;;;5089061;28;20203;-64
2024/04/05 12:19:35;;;;;;;5.30;2.60;;;;;;;;;;5089562;28;20171;-64
2024/04/05 12:22:03;;;;;;;4.33;2.33;;;;;;;;;;5088734;28;20232;-64
2024/04/05 12:24:29;;;;;;;2.97;2.20;;;;;;;;;;5088468;28;20187;-66
2024/04/05 12:26:55;;;;;;;3.63;2.23;;;;;;;;;;5089038;28;20179;-65
2024/04/05 12:29:22;;;;;;;4.43;2.00;;;;;;;;;;5089821;28;20168;-64
2024/04/05 12:31:50;;;;;;;6.40;2.60;;;;;;;;;;5092789;28;20192;-65
2024/04/05 12:34:17;;;;;;;4.10;1.80;;;;;;;;;;5092690;28;20192;-65
2024/04/05 12:36:43;;;;;;;5.67;1.93;;;;;;;;;;5100645;28;20186;-66
2024/04/05 12:39:24;;;;;;;2.07;1.70;;;;;;;;;;5112826;28;20224;-65
2024/04/05 12:41:50;;;;;;;2.83;1.80;;;;;;;;;;5112948;28;20183;-64
2024/04/05 12:44:18;;;;;;;2.40;1.77;;;;;;;;;;5112642;28;20194;-65
2024/04/05 12:46:44;;;;;;;2.00;1.60;;;;;;;;;;5113004;28;20160;-64
2024/04/05 12:49:10;;;;;;;1.50;1.40;;;;;;;;;;5112847;28;20274;-63
2024/04/05 12:51:36;;;;;;;2.13;1.80;;;;;;;;;;5112200;28;20195;-64
2024/04/05 12:54:02;;;;;;;2.53;1.70;;;;;;;;;;5112438;28;20524;-64
2024/04/05 12:56:30;;;;;;;1.87;1.67;;;;;;;;;;5112585;28;20580;-65
2024/04/05 12:58:57;;;;;;;3.17;1.40;;;;;;;;;;5112504;28;20191;-65
2024/04/05 13:01:25;;;;;;;2.10;1.57;;;;;;;;;;5094248;28;20167;-65
2024/04/05 13:03:51;;;;;;;6.77;1.80;;;;;;;;;;5113049;28;20618;-66
2024/04/05 13:06:17;;;;;;;3.47;1.40;;;;;;;;;;5112303;28;20355;-66
2024/04/05 13:08:43;;;;;;;4.47;1.87;;;;;;;;;;5112578;28;20195;-66
2024/04/05 13:11:10;;;;;;;2.53;1.60;;;;;;;;;;5112317;28;20198;-58
2024/04/05 13:13:38;;;;;;;3.57;1.73;;;;;;;;;;5111857;28;20239;-64
2024/04/05 13:16:06;;;;;;;2.10;1.50;;;;;;;;;;5112294;28;20167;-64
2024/04/05 13:18:32;;;;;;;1.40;1.30;;;;;;;;;;5112813;28;20834;-64
2024/04/05 13:21:05;;;;;;;1.90;1.40;;;;;;;;;;5112261;28;20175;-61
2024/04/05 13:23:41;;;;;;;1.47;1.37;;;;;;;;;;5111675;28;20303;-61
2024/04/05 13:26:12;;;;;;;3.20;1.70;;;;;;;;;;5112183;28;20570;-62
2024/04/05 13:28:38;;;;;;;2.57;1.63;;;;;;;;;;5111952;28;20198;-62
2024/04/05 13:31:04;;;;;;;1.90;1.50;;;;;;;;;;5112011;28;20188;-61
2024/04/05 13:33:33;;;;;;;1.47;1.37;;;;;;;;;;5112032;28;20174;-60
2024/04/05 13:36:08;;;;;;;5.53;1.60;;;;;;;;;;5111754;28;20634;-60
2024/04/05 13:38:35;;;;;;;2.93;2.10;;;;;;;;;;5111687;28;20619;-60
2024/04/05 13:41:01;;;;;;;3.83;1.70;;;;;;;;;;5111554;28;20616;-61
2024/04/05 13:43:28;;;;;;;1.60;1.40;;;;;;;;;;5111803;28;20607;-60
2024/04/05 13:46:06;;;;;;;1.57;1.37;;;;;;;;;;5111900;28;20592;-60
2024/04/05 13:48:33;;;;;;;1.77;1.50;;;;;;;;;;5112133;28;20272;-61
2024/04/05 13:50:59;;;;;;;3.03;1.40;;;;;;;;;;5111588;28;20222;-61
2024/04/05 13:53:28;;;;;;;2.17;1.60;;;;;;;;;;5111710;28;20162;-60
2024/04/05 13:55:54;;;;;;;1.97;1.40;;;;;;;;;;5111889;28;20173;-60
2024/04/05 13:58:20;;;;;;;1.50;1.20;;;;;;;;;;5111444;28;20164;-62
2024/04/05 14:00:46;;;;;;;2.80;1.80;;;;;;;;;;5111776;28;20167;-61
2024/04/05 14:03:12;;;;;;;2.47;1.80;;;;;;;;;;5111915;28;20167;-60
2024/04/05 14:05:38;;;;;;;2.87;1.70;;;;;;;;;;5110917;28;20160;-61
2024/04/05 14:08:04;;;;;;;2.80;1.57;;;;;;;;;;5111342;28;20532;-60
2024/04/05 14:10:35;;;;;;;1.53;1.43;;;;;;;;;;5111353;28;20163;-61
2024/04/05 14:13:01;;;;;;;1.57;1.47;;;;;;;;;;5111568;28;20148;-59
2024/04/05 14:15:27;;;;;;;5.37;2.10;;;;;;;;;;5110667;28;20172;-60
2024/04/05 14:17:53;;;;;;;2.13;1.40;;;;;;;;;;5111353;28;20252;-62
2024/04/05 14:20:19;;;;;;;2.50;1.93;;;;;;;;;;5110955;28;20164;-61
2024/04/05 14:22:45;;;;;;;2.70;1.77;;;;;;;;;;5111380;28;20219;-61
2024/04/05 14:25:11;;;;;;;1.70;1.60;;;;;;;;;;5110477;28;20184;-60
2024/04/05 14:27:38;;;;;;;2.40;1.40;;;;;;;;;;5110829;28;20179;-60
2024/04/05 14:30:04;;;;;;;2.63;1.80;;;;;;;;;;5110515;28;20160;-61
2024/04/05 14:32:30;;;;;;;2.50;1.77;;;;;;;;;;5111315;28;20203;-61
2024/04/05 14:34:56;;;;;;;2.03;1.80;;;;;;;;;;5111104;28;20565;-63
2024/04/05 14:37:22;;;;;;;2.47;1.57;;;;;;;;;;5110445;28;20203;-61
2024/04/05 14:39:51;;;;;;;2.37;1.80;;;;;;;;;;5108875;28;20170;-62
2024/04/05 14:42:18;;;;;;;4.00;1.90;;;;;;;;;;5107172;28;20179;-62
2024/04/05 14:44:52;;;;;;;1.60;1.50;;;;;;;;;;5106582;28;20216;-61